createdAt,value
2018-06-10T00:00:03.364Z,18.43
2018-06-10T00:02:42.832Z,18.39
2018-06-10T00:05:14.932Z,18.27
2018-06-10T00:07:46.192Z,18.31
2018-06-10T00:10:17.609Z,18.36
2018-06-10T00:12:48.848Z,18.19
2018-06-10T00:15:25.138Z,18.29
2018-06-10T00:17:56.349Z,18.45
2018-06-10T00:20:27.690Z,17.99
2018-06-10T00:22:58.792Z,18.00
2018-06-10T00:25:30.211Z,18.01
2018-06-10T00:28:01.341Z,18.03
2018-06-10T00:30:32.190Z,18.09
2018-06-10T00:33:03.344Z,18.22
2018-06-10T00:35:34.568Z,18.28
2018-06-10T00:38:05.656Z,18.16
2018-06-10T00:40:56.926Z,18.36
2018-06-10T00:43:28.160Z,18.21
2018-06-10T00:45:59.763Z,17.94
2018-06-10T00:48:31.060Z,18.21
2018-06-10T00:51:02.356Z,17.74
2018-06-10T00:53:45.319Z,17.90
2018-06-10T00:56:27.422Z,17.91
2018-06-10T00:58:58.822Z,17.97
2018-06-10T01:01:30.089Z,18.05
2018-06-10T01:04:01.201Z,18.06
2018-06-10T01:06:32.636Z,18.16
2018-06-10T01:09:04.002Z,18.11
2018-06-10T01:11:35.328Z,18.14
2018-06-10T01:14:06.704Z,18.14
2018-06-10T01:16:38.028Z,18.22
2018-06-10T01:19:09.210Z,18.24
2018-06-10T01:21:40.377Z,18.30
2018-06-10T01:24:11.691Z,18.23
2018-06-10T01:26:48.553Z,18.05
2018-06-10T01:29:20.123Z,18.05
2018-06-10T01:31:50.991Z,18.21
2018-06-10T01:34:21.843Z,18.13
2018-06-10T01:36:52.688Z,18.08
2018-06-10T01:39:26.087Z,18.09
2018-06-10T01:41:57.483Z,18.12
2018-06-10T01:44:28.589Z,18.11
2018-06-10T01:46:59.741Z,18.24
2018-06-10T01:49:31.010Z,18.16
2018-06-10T01:52:02.340Z,18.09
2018-06-10T01:54:33.423Z,18.06
2018-06-10T01:57:04.652Z,18.12
2018-06-10T01:59:35.745Z,17.93
2018-06-10T02:02:06.861Z,17.98
2018-06-10T02:04:37.960Z,18.06
2018-06-10T02:07:09.305Z,18.08
2018-06-10T02:09:40.481Z,18.02
2018-06-10T02:12:12.099Z,17.78
2018-06-10T02:14:43.346Z,17.57
2018-06-10T02:17:14.383Z,17.61
2018-06-10T02:22:45.123Z,17.88
2018-06-10T02:25:16.370Z,17.87
2018-06-10T02:27:47.448Z,17.94
2018-06-10T02:30:18.793Z,17.98
2018-06-10T02:32:49.990Z,17.91
2018-06-10T02:35:21.179Z,17.64
2018-06-10T02:37:54.049Z,17.77
2018-06-10T02:40:25.108Z,17.71
2018-06-10T02:42:56.165Z,17.77
2018-06-10T02:45:27.265Z,17.90
2018-06-10T02:47:58.772Z,17.90
2018-06-10T02:50:30.065Z,17.92
2018-06-10T02:53:01.548Z,17.99
2018-06-10T02:55:32.672Z,17.66
2018-06-10T02:58:04.177Z,17.90
2018-06-10T03:00:35.186Z,18.03
2018-06-10T03:03:06.287Z,18.00
2018-06-10T03:05:37.410Z,17.83
2018-06-10T03:08:08.560Z,17.73
2018-06-10T03:10:39.761Z,17.86
2018-06-10T03:13:11.455Z,17.83
2018-06-10T03:15:42.673Z,17.87
2018-06-10T03:18:14.242Z,17.52
2018-06-10T03:20:45.456Z,17.77
2018-06-10T03:23:16.638Z,17.90
2018-06-10T03:25:47.727Z,17.82
2018-06-10T03:28:18.768Z,17.91
2018-06-10T03:30:49.858Z,17.95
2018-06-10T03:33:20.958Z,17.84
2018-06-10T03:36:05.718Z,17.82
2018-06-10T03:38:36.756Z,17.85
2018-06-10T03:41:07.949Z,17.79
2018-06-10T03:43:45.684Z,17.85
2018-06-10T03:46:16.889Z,17.99
2018-06-10T03:48:48.220Z,18.01
2018-06-10T03:51:19.363Z,17.92
2018-06-10T03:53:50.705Z,17.92
2018-06-10T03:56:21.936Z,18.02
2018-06-10T03:58:53.296Z,17.93
2018-06-10T04:01:24.346Z,17.84
2018-06-10T04:03:55.443Z,17.87
2018-06-10T04:06:26.548Z,17.97
2018-06-10T04:08:57.708Z,17.94
2018-06-10T04:11:28.793Z,17.63
2018-06-10T04:13:59.887Z,17.95
2018-06-10T04:16:38.844Z,17.87
2018-06-10T04:19:09.990Z,18.03
2018-06-10T04:21:41.151Z,18.06
2018-06-10T04:27:11.038Z,18.11
2018-06-10T04:29:42.553Z,18.07
2018-06-10T04:32:25.459Z,18.12
2018-06-10T04:34:56.552Z,18.27
2018-06-10T04:37:27.745Z,18.16
2018-06-10T04:39:58.992Z,18.11
2018-06-10T04:42:30.178Z,18.02
2018-06-10T04:45:01.601Z,17.88
2018-06-10T04:47:32.704Z,17.96
2018-06-10T04:50:04.000Z,17.94
2018-06-10T04:52:35.668Z,18.01
2018-06-10T04:55:07.150Z,17.94
2018-06-10T04:57:38.472Z,17.77
2018-06-10T05:00:22.863Z,17.87
2018-06-10T05:02:54.030Z,18.25
2018-06-10T05:05:25.120Z,18.38
2018-06-10T05:07:56.448Z,18.42
2018-06-10T05:10:27.590Z,18.50
2018-06-10T05:12:59.019Z,18.54
2018-06-10T05:15:30.568Z,18.69
2018-06-10T05:18:01.615Z,18.38
2018-06-10T05:20:32.753Z,18.52
2018-06-10T05:23:04.044Z,18.61
2018-06-10T05:25:35.453Z,18.68
2018-06-10T05:28:06.701Z,18.78
2018-06-10T05:30:38.152Z,18.78
2018-06-10T05:33:09.339Z,18.92
2018-06-10T05:35:42.966Z,19.04
2018-06-10T05:38:14.085Z,19.04
2018-06-10T05:43:40.508Z,19.57
2018-06-10T05:46:11.961Z,19.53
2018-06-10T05:48:43.308Z,19.45
2018-06-10T05:51:14.562Z,19.66
2018-06-10T05:53:45.896Z,19.70
2018-06-10T05:56:17.336Z,19.83
2018-06-10T05:58:48.392Z,19.88
2018-06-10T06:01:30.923Z,19.98
2018-06-10T06:04:02.152Z,20.01
2018-06-10T06:06:33.323Z,19.67
2018-06-10T06:09:13.824Z,19.85
2018-06-10T06:11:45.001Z,20.01
2018-06-10T06:14:16.278Z,20.03
2018-06-10T06:16:47.401Z,20.01
2018-06-10T06:19:18.564Z,20.01
2018-06-10T06:21:49.752Z,20.01
2018-06-10T06:24:20.919Z,20.01
2018-06-10T06:26:52.002Z,19.97
2018-06-10T06:29:32.293Z,20.12
2018-06-10T06:32:03.740Z,20.11
2018-06-10T06:34:35.023Z,20.22
2018-06-10T06:40:07.744Z,19.90
2018-06-10T06:42:38.928Z,19.94
2018-06-10T06:48:16.861Z,20.33
2018-06-10T06:50:48.009Z,20.48
2018-06-10T06:53:23.558Z,20.51
2018-06-10T06:55:54.836Z,20.43
2018-06-10T06:58:26.063Z,20.44
2018-06-10T07:03:58.968Z,20.37
2018-06-10T07:06:29.916Z,20.50
2018-06-10T07:11:57.829Z,20.67
2018-06-10T07:14:29.243Z,20.76
2018-06-10T07:17:00.432Z,20.94
2018-06-10T07:19:31.590Z,20.87
2018-06-10T07:22:02.792Z,21.07
2018-06-10T07:24:54.605Z,21.02
2018-06-10T07:27:25.674Z,21.13
2018-06-10T07:29:56.874Z,21.09
2018-06-10T07:32:27.993Z,21.21
2018-06-10T07:34:59.498Z,21.04
2018-06-10T07:37:30.768Z,21.09
2018-06-10T07:40:05.572Z,20.96
2018-06-10T07:42:36.753Z,20.86
2018-06-10T07:45:08.261Z,20.76
2018-06-10T07:47:51.824Z,20.69
2018-06-10T07:50:23.187Z,20.83
2018-06-10T07:52:54.516Z,21.05
2018-06-10T07:55:26.059Z,20.94
2018-06-10T07:57:57.338Z,20.88
2018-06-10T08:00:28.708Z,20.93
2018-06-10T08:02:59.553Z,21.09
2018-06-10T08:05:30.782Z,20.89
2018-06-10T08:08:01.735Z,20.88
2018-06-10T08:10:32.945Z,20.92
2018-06-10T08:13:03.825Z,21.04
2018-06-10T08:15:34.671Z,21.13
2018-06-10T08:18:05.852Z,21.13
2018-06-10T08:20:37.138Z,21.24
2018-06-10T08:23:09.469Z,21.21
2018-06-10T08:25:40.897Z,21.17
2018-06-10T08:28:11.980Z,21.20
2018-06-10T08:30:43.384Z,21.50
2018-06-10T08:33:14.239Z,21.62
2018-06-10T08:35:45.680Z,21.56
2018-06-10T08:38:16.742Z,21.83
2018-06-10T08:40:47.864Z,21.74
2018-06-10T08:43:19.550Z,21.70
2018-06-10T08:45:51.100Z,21.51
2018-06-10T08:48:22.516Z,21.65
2018-06-10T08:50:54.032Z,21.81
2018-06-10T08:53:25.229Z,21.86
2018-06-10T08:55:56.689Z,21.69
2018-06-10T08:58:46.757Z,22.05
2018-06-10T09:01:18.174Z,22.07
2018-06-10T09:03:49.268Z,22.31
2018-06-10T09:06:20.805Z,22.21
2018-06-10T09:08:52.020Z,22.59
2018-06-10T09:11:23.707Z,22.31
2018-06-10T09:13:54.861Z,22.09
2018-06-10T09:16:26.404Z,22.09
2018-06-10T09:19:09.936Z,22.22
2018-06-10T09:21:42.006Z,22.18
2018-06-10T09:24:13.890Z,22.28
2018-06-10T09:26:45.168Z,22.68
2018-06-10T09:29:16.404Z,22.95
2018-06-10T09:31:47.876Z,22.88
2018-06-10T09:34:19.192Z,23.19
2018-06-10T09:36:50.386Z,23.35
2018-06-10T09:39:21.247Z,23.62
2018-06-10T09:41:52.536Z,23.55
2018-06-10T09:44:23.364Z,23.47
2018-06-10T09:47:08.376Z,23.43
2018-06-10T09:49:39.681Z,23.64
2018-06-10T09:52:11.089Z,23.79
2018-06-10T09:54:54.396Z,23.78
2018-06-10T09:57:25.701Z,23.84
2018-06-10T09:59:56.624Z,23.93
2018-06-10T10:02:27.923Z,23.87
2018-06-10T10:04:58.772Z,24.16
2018-06-10T10:07:29.757Z,24.13
2018-06-10T10:10:01.096Z,24.04
2018-06-10T10:12:32.627Z,23.92
2018-06-10T10:15:03.898Z,24.18
2018-06-10T10:17:35.092Z,23.99
2018-06-10T10:20:06.185Z,24.16
2018-06-10T10:22:37.406Z,24.07
2018-06-10T10:25:08.435Z,23.64
2018-06-10T10:27:40.040Z,23.62
2018-06-10T10:30:11.165Z,24.18
2018-06-10T10:32:42.801Z,24.51
2018-06-10T10:35:13.942Z,24.56
2018-06-10T10:37:45.525Z,24.56
2018-06-10T10:40:16.969Z,24.59
2018-06-10T10:42:48.291Z,24.98
2018-06-10T10:45:20.392Z,24.82
2018-06-10T10:47:51.859Z,24.63
2018-06-10T10:50:23.305Z,24.43
2018-06-10T10:52:54.606Z,24.83
2018-06-10T10:55:26.132Z,25.04
2018-06-10T10:57:57.509Z,25.41
2018-06-10T11:00:28.748Z,25.34
2018-06-10T11:03:07.481Z,25.16
2018-06-10T11:05:38.528Z,24.85
2018-06-10T11:08:09.617Z,25.10
2018-06-10T11:10:40.725Z,25.16
2018-06-10T11:13:11.973Z,25.54
2018-06-10T11:15:43.135Z,25.52
2018-06-10T11:18:14.268Z,25.34
2018-06-10T11:20:45.288Z,25.54
2018-06-10T11:23:16.973Z,25.71
2018-06-10T11:26:06.724Z,25.71
2018-06-10T11:28:38.068Z,26.19
2018-06-10T11:31:10.129Z,25.90
2018-06-10T11:33:41.914Z,25.34
2018-06-10T11:36:13.541Z,25.69
2018-06-10T11:38:44.981Z,25.81
2018-06-10T11:41:16.617Z,25.76
2018-06-10T11:43:47.912Z,25.81
2018-06-10T11:46:19.057Z,25.76
2018-06-10T11:48:50.496Z,25.27
2018-06-10T11:51:21.689Z,25.63
2018-06-10T11:53:52.529Z,25.66
2018-06-10T11:56:23.372Z,25.71
2018-06-10T11:58:54.440Z,25.93
2018-06-10T12:01:25.710Z,25.72
2018-06-10T12:04:18.657Z,25.91
2018-06-10T12:06:49.800Z,26.12
2018-06-10T12:09:21.485Z,26.28
2018-06-10T12:11:52.358Z,25.58
2018-06-10T12:14:24.203Z,25.51
2018-06-10T12:17:01.050Z,25.44
2018-06-10T12:19:32.484Z,25.44
2018-06-10T12:22:03.648Z,25.89
2018-06-10T12:24:34.768Z,26.33
2018-06-10T12:27:05.813Z,26.75
2018-06-10T12:29:37.268Z,26.26
2018-06-10T12:32:08.484Z,26.11
2018-06-10T12:34:39.647Z,26.46
2018-06-10T12:37:10.461Z,26.53
2018-06-10T12:39:41.595Z,26.62
2018-06-10T12:42:12.505Z,26.44
2018-06-10T12:44:43.540Z,26.54
2018-06-10T12:47:14.361Z,27.04
2018-06-10T12:49:45.253Z,27.28
2018-06-10T12:52:16.422Z,27.23
2018-06-10T12:54:47.528Z,26.73
2018-06-10T12:57:18.680Z,26.58
2018-06-10T12:59:50.076Z,26.18
2018-06-10T13:02:21.057Z,25.86
2018-06-10T13:04:52.325Z,25.71
2018-06-10T13:07:23.437Z,25.73
2018-06-10T13:09:54.570Z,25.90
2018-06-10T13:12:25.686Z,26.28
2018-06-10T13:14:57.032Z,25.94
2018-06-10T13:17:28.422Z,25.72
2018-06-10T13:20:15.909Z,25.86
2018-06-10T13:22:46.836Z,25.49
2018-06-10T13:25:17.739Z,25.40
2018-06-10T13:27:48.552Z,25.53
2018-06-10T13:30:19.845Z,25.36
2018-06-10T13:32:57.580Z,25.32
2018-06-10T13:35:29.181Z,25.09
2018-06-10T13:38:00.896Z,24.95
2018-06-10T13:40:31.891Z,24.92
2018-06-10T13:43:02.754Z,24.60
2018-06-10T13:45:34.052Z,24.38
2018-06-10T13:48:04.915Z,24.43
2018-06-10T13:50:36.277Z,24.11
2018-06-10T13:53:07.536Z,23.93
2018-06-10T13:55:38.973Z,23.66
2018-06-10T13:58:10.453Z,23.29
2018-06-10T14:00:41.612Z,23.37
2018-06-10T14:03:12.573Z,23.33
2018-06-10T14:05:44.581Z,23.60
2018-06-10T14:08:15.765Z,24.23
2018-06-10T14:10:51.392Z,24.51
2018-06-10T14:13:22.800Z,24.40
2018-06-10T14:15:54.087Z,24.28
2018-06-10T14:18:25.364Z,24.49
2018-06-10T14:20:56.524Z,24.47
2018-06-10T14:23:27.448Z,24.82
2018-06-10T14:25:58.952Z,24.99
2018-06-10T14:28:30.124Z,24.88
2018-06-10T14:31:01.357Z,24.70
2018-06-10T14:33:32.432Z,24.93
2018-06-10T14:36:03.605Z,25.12
2018-06-10T14:38:34.735Z,25.32
2018-06-10T14:41:05.580Z,25.44
2018-06-10T14:43:36.906Z,25.26
2018-06-10T14:46:12.799Z,25.59
2018-06-10T14:48:43.809Z,25.04
2018-06-10T14:51:15.296Z,25.06
2018-06-10T14:53:50.244Z,25.16
2018-06-10T14:56:21.356Z,25.06
2018-06-10T14:58:52.553Z,24.80
2018-06-10T15:01:26.215Z,24.85
2018-06-10T15:03:58.231Z,24.79
2018-06-10T15:06:30.065Z,24.98
2018-06-10T15:09:15.317Z,25.01
2018-06-10T15:11:46.668Z,25.15
2018-06-10T15:14:17.842Z,25.17
2018-06-10T15:16:49.225Z,25.35
2018-06-10T15:19:20.361Z,25.43
2018-06-10T15:21:51.667Z,25.53
2018-06-10T15:24:28.061Z,25.42
2018-06-10T15:26:59.536Z,25.27
2018-06-10T15:29:30.857Z,25.31
2018-06-10T15:32:02.624Z,25.47
2018-06-10T15:34:33.733Z,25.27
2018-06-10T15:37:05.093Z,25.20
2018-06-10T15:39:36.169Z,25.16
2018-06-10T15:42:07.201Z,25.12
2018-06-10T15:44:38.288Z,25.38
2018-06-10T15:47:09.523Z,25.26
2018-06-10T15:49:40.812Z,25.19
2018-06-10T15:52:12.481Z,25.09
2018-06-10T15:54:43.715Z,25.04
2018-06-10T15:57:15.078Z,25.21
2018-06-10T15:59:46.212Z,25.09
2018-06-10T16:02:17.443Z,25.25
2018-06-10T16:04:48.727Z,25.07
2018-06-10T16:07:20.264Z,24.88
2018-06-10T16:09:51.092Z,24.94
2018-06-10T16:12:22.978Z,24.85
2018-06-10T16:17:52.172Z,24.78
2018-06-10T16:20:25.032Z,24.85
2018-06-10T16:22:56.907Z,24.82
2018-06-10T16:25:27.871Z,24.78
2018-06-10T16:27:59.157Z,25.03
2018-06-10T16:30:30.204Z,25.12
2018-06-10T16:33:01.085Z,25.27
2018-06-10T16:35:32.725Z,25.41
2018-06-10T16:38:03.968Z,25.43
2018-06-10T16:40:35.407Z,25.36
2018-06-10T16:43:07.211Z,25.15
2018-06-10T16:45:38.609Z,25.03
2018-06-10T16:48:10.464Z,25.12
2018-06-10T16:50:41.896Z,25.01
2018-06-10T16:53:13.539Z,25.10
2018-06-10T16:55:45.355Z,25.11
2018-06-10T16:58:17.669Z,25.25
2018-06-10T17:00:49.959Z,25.25
2018-06-10T17:03:22.523Z,25.39
2018-06-10T17:05:54.308Z,25.26
2018-06-10T17:08:26.147Z,25.35
2018-06-10T17:10:57.849Z,25.34
2018-06-10T17:13:29.696Z,25.33
2018-06-10T17:16:00.850Z,25.06
2018-06-10T17:18:32.160Z,25.22
2018-06-10T17:21:18.727Z,25.18
2018-06-10T17:23:50.527Z,25.12
2018-06-10T17:26:21.829Z,25.05
2018-06-10T17:28:53.380Z,25.11
2018-06-10T17:31:24.686Z,25.03
2018-06-10T17:33:55.956Z,24.99
2018-06-10T17:36:31.609Z,25.06
2018-06-10T17:39:02.992Z,24.98
2018-06-10T17:41:34.319Z,24.89
2018-06-10T17:44:05.655Z,24.90
2018-06-10T17:46:36.808Z,24.85
2018-06-10T17:49:20.845Z,24.72
2018-06-10T17:51:52.169Z,24.70
2018-06-10T17:54:23.896Z,24.65
2018-06-10T17:57:13.528Z,24.56
2018-06-10T17:59:44.979Z,24.28
2018-06-10T18:02:16.361Z,24.31
2018-06-10T18:04:47.804Z,24.57
2018-06-10T18:07:19.148Z,24.61
2018-06-10T18:09:50.595Z,24.60
2018-06-10T18:12:23.656Z,24.55
2018-06-10T18:14:55.645Z,24.44
2018-06-10T18:17:27.016Z,24.40
2018-06-10T18:20:02.424Z,24.32
2018-06-10T18:22:34.165Z,24.25
2018-06-10T18:25:05.549Z,24.20
2018-06-10T18:27:36.596Z,24.17
2018-06-10T18:30:08.227Z,24.22
2018-06-10T18:32:39.505Z,24.27
2018-06-10T18:35:10.737Z,24.20
2018-06-10T18:37:41.889Z,24.22
2018-06-10T18:40:13.181Z,24.16
2018-06-10T18:42:44.033Z,24.08
2018-06-10T18:45:15.437Z,24.01
2018-06-10T18:47:48.474Z,23.84
2018-06-10T18:50:22.317Z,23.76
2018-06-10T18:52:55.005Z,23.68
2018-06-10T18:55:26.873Z,23.69
2018-06-10T18:57:57.831Z,23.65
2018-06-10T19:00:29.333Z,23.59
2018-06-10T19:03:00.540Z,23.56
2018-06-10T19:05:31.912Z,23.44
2018-06-10T19:08:03.288Z,23.43
2018-06-10T19:10:34.581Z,23.31
2018-06-10T19:13:07.169Z,23.31
2018-06-10T19:15:38.469Z,23.26
2018-06-10T19:18:09.677Z,23.09
2018-06-10T19:20:41.168Z,22.94
2018-06-10T19:23:12.400Z,23.00
2018-06-10T19:26:05.240Z,22.97
2018-06-10T19:28:36.449Z,22.99
2018-06-10T19:31:07.718Z,22.84
2018-06-10T19:33:49.184Z,22.81
2018-06-10T19:36:20.683Z,22.79
2018-06-10T19:38:52.013Z,22.75
2018-06-10T19:41:31.413Z,22.82
2018-06-10T19:44:02.495Z,22.85
2018-06-10T19:46:33.908Z,22.80
2018-06-10T19:49:05.188Z,22.93
2018-06-10T19:51:36.783Z,22.88
2018-06-10T19:54:07.641Z,22.82
2018-06-10T19:56:39.077Z,22.87
2018-06-10T19:59:09.921Z,22.78
2018-06-10T20:01:41.033Z,22.83
2018-06-10T20:04:13.300Z,22.87
2018-06-10T20:06:44.763Z,22.81
2018-06-10T20:09:28.166Z,22.70
2018-06-10T20:12:00.086Z,22.72
2018-06-10T20:14:31.768Z,22.67
2018-06-10T20:17:03.411Z,22.77
2018-06-10T20:19:34.404Z,22.71
2018-06-10T20:22:05.829Z,22.65
2018-06-10T20:24:37.839Z,22.52
2018-06-10T20:27:09.407Z,22.59
2018-06-10T20:29:40.597Z,22.55
2018-06-10T20:32:11.960Z,22.49
2018-06-10T20:34:43.191Z,22.54
2018-06-10T20:37:14.347Z,22.34
2018-06-10T20:39:46.465Z,22.31
2018-06-10T20:42:17.877Z,22.37
2018-06-10T20:44:49.007Z,22.38
2018-06-10T20:47:19.910Z,22.43
2018-06-10T20:49:50.825Z,22.41
2018-06-10T20:52:21.750Z,22.33
2018-06-10T20:54:52.629Z,22.31
2018-06-10T20:57:23.652Z,22.31
2018-06-10T20:59:54.689Z,22.35
2018-06-10T21:02:27.445Z,22.39
2018-06-10T21:04:58.757Z,22.23
2018-06-10T21:07:50.485Z,22.16
2018-06-10T21:10:22.184Z,22.14
2018-06-10T21:12:53.638Z,22.09
2018-06-10T21:15:25.710Z,22.10
2018-06-10T21:18:01.700Z,22.02
2018-06-10T21:20:32.973Z,22.06
2018-06-10T21:23:04.501Z,22.00
2018-06-10T21:25:35.578Z,21.91
2018-06-10T21:28:06.972Z,21.98
2018-06-10T21:30:38.985Z,21.94
2018-06-10T21:33:10.530Z,21.95
2018-06-10T21:35:41.768Z,21.99
2018-06-10T21:38:13.217Z,21.93
2018-06-10T21:40:44.389Z,21.89
2018-06-10T21:43:15.841Z,21.71
2018-06-10T21:45:47.881Z,21.72
2018-06-10T21:48:19.147Z,21.79
2018-06-10T21:50:50.322Z,21.80
2018-06-10T21:53:21.444Z,21.73
2018-06-10T21:55:52.640Z,21.73
2018-06-10T21:58:24.084Z,21.65
2018-06-10T22:00:57.792Z,21.76
2018-06-10T22:03:29.232Z,21.70
2018-06-10T22:06:00.108Z,21.25
2018-06-10T22:08:31.265Z,21.35
2018-06-10T22:11:02.607Z,21.41
2018-06-10T22:13:34.029Z,21.19
2018-06-10T22:16:14.962Z,21.20
2018-06-10T22:18:46.188Z,21.31
2018-06-10T22:21:17.462Z,20.96
2018-06-10T22:23:48.820Z,20.98
2018-06-10T22:26:19.709Z,21.03
2018-06-10T22:28:50.775Z,20.95
2018-06-10T22:31:21.904Z,20.89
2018-06-10T22:33:52.768Z,21.07
2018-06-10T22:36:23.612Z,20.83
2018-06-10T22:38:54.739Z,20.97
2018-06-10T22:41:25.965Z,21.28
2018-06-10T22:43:57.198Z,21.07
2018-06-10T22:46:28.385Z,21.00
2018-06-10T22:49:00.093Z,20.84
2018-06-10T22:51:31.172Z,20.63
2018-06-10T22:55:09.042Z,20.70
2018-06-10T22:57:40.104Z,20.67
2018-06-10T23:00:11.449Z,20.70
2018-06-10T23:02:42.166Z,20.62
2018-06-10T23:05:13.388Z,20.59
2018-06-10T23:07:44.561Z,20.53
2018-06-10T23:10:20.541Z,20.56
2018-06-10T23:12:51.760Z,20.49
2018-06-10T23:15:23.340Z,20.45
2018-06-10T23:17:54.553Z,20.51
2018-06-10T23:20:26.129Z,20.53
2018-06-10T23:22:57.240Z,20.34
2018-06-10T23:25:28.638Z,20.21
2018-06-10T23:27:59.675Z,20.38
2018-06-10T23:30:31.048Z,20.04
2018-06-10T23:33:03.157Z,20.19
2018-06-10T23:35:34.416Z,20.42
2018-06-10T23:38:05.466Z,20.38
2018-06-10T23:40:36.752Z,20.36
2018-06-10T23:43:07.804Z,20.18
2018-06-10T23:45:39.177Z,20.17
2018-06-10T23:48:10.234Z,20.03
2018-06-10T23:50:41.288Z,20.04
2018-06-10T23:53:12.516Z,20.07
2018-06-10T23:55:43.982Z,20.08
2018-06-10T23:58:14.940Z,20.17
